PWSweather.com
Personal Weather Stations
Station Observations
KCAOCEAN4
Jeffries Ranch, Oceanside, CA 92057

Jeffries RanchOceanside, CA 92057

Lat: 33.24433789, Lon: -117.25337219

Elevation: 207

Station Type: Davis Vantage Vue

jeffriesranchweather.com

High Low Average
Temperature 76.3°F24.6°C 42.1°F5.6°C 62.0°F16.7°C
Dew Point 40.3°F4.6°C 11.3°F-11.5°C 21.9°F-5.6°C
Winds 8.9 mph 14.3 kmh Calm Calm 4.0 mph ESE6.4 kmh ESE
Wind Gusts 17.0 mph27.4 kmh 2.0 mph3.2 kmh 8.0 mph12.9 kmh
Humidity 40% 12% 22%
Pressure 30.15 in1021.0 mb 30.04 in1017.3 mb -
Precipitation 0.00 in0.0 mm - -
Hour Temp Dew Point Humidity Winds Wind Gusts Pressure Precip Precip Rate Daily Precip Total
12:01 AM 42.1°F5.6°C 18.9°F-7.3°C 39% 2.0 mph ENE3.2 kmh ENE 4.0 mph6.4 kmh 30.10 in1019.3 mb 0.00 in0.0 mm 0.00 in0.0 mm 0.00 in0.0 mm
12:11 AM 43.9°F6.6°C 18.7°F-7.4°C 36% 2.9 mph ENE4.7 kmh ENE 6.0 mph9.7 kmh 30.10 in1019.3 mb 0.00 in0.0 mm 0.00 in0.0 mm 0.00 in0.0 mm
12:21 AM 48.0°F8.9°C 17.2°F-8.2°C 29% 2.9 mph ENE4.7 kmh ENE 4.9 mph7.9 kmh 30.11 in1019.6 mb 0.00 in0.0 mm 0.00 in0.0 mm 0.00 in0.0 mm
12:31 AM 48.7°F9.3°C 17.1°F-8.3°C 28% 2.9 mph NE4.7 kmh NE 6.0 mph9.7 kmh 30.11 in1019.6 mb 0.00 in0.0 mm 0.00 in0.0 mm 0.00 in0.0 mm
12:41 AM 52.0°F11.1°C 16.3°F-8.7°C 24% 4.0 mph NE6.4 kmh NE 6.0 mph9.7 kmh 30.11 in1019.6 mb 0.00 in0.0 mm 0.00 in0.0 mm 0.00 in0.0 mm
12:51 AM 53.8°F12.1°C 15.8°F-9.0°C 22% 2.9 mph NE4.7 kmh NE 6.0 mph9.7 kmh 30.11 in1019.6 mb 0.00 in0.0 mm 0.00 in0.0 mm 0.00 in0.0 mm
01:01 AM 53.2°F11.8°C 16.3°F-8.7°C 23% 2.9 mph E4.7 kmh E 6.0 mph9.7 kmh 30.11 in1019.6 mb 0.00 in0.0 mm 0.00 in0.0 mm 0.00 in0.0 mm
01:11 AM 52.9°F11.6°C 17.1°F-8.3°C 24% 2.0 mph E3.2 kmh E 4.0 mph6.4 kmh 30.11 in1019.6 mb 0.00 in0.0 mm 0.00 in0.0 mm 0.00 in0.0 mm
01:21 AM 51.6°F10.9°C 16.9°F-8.4°C 25% 2.0 mph E3.2 kmh E 4.0 mph6.4 kmh 30.11 in1019.6 mb 0.00 in0.0 mm 0.00 in0.0 mm 0.00 in0.0 mm
01:31 AM 52.2°F11.2°C 16.5°F-8.6°C 24% 2.0 mph NE3.2 kmh NE 6.0 mph9.7 kmh 30.11 in1019.6 mb 0.00 in0.0 mm 0.00 in0.0 mm 0.00 in0.0 mm
01:41 AM 48.7°F9.3°C 16.2°F-8.8°C 27% 2.0 mph ENE3.2 kmh ENE 4.9 mph7.9 kmh 30.11 in1019.6 mb 0.00 in0.0 mm 0.00 in0.0 mm 0.00 in0.0 mm
01:51 AM 51.8°F11.0°C 15.1°F-9.4°C 23% 2.9 mph ENE4.7 kmh ENE 4.9 mph7.9 kmh 30.11 in1019.6 mb 0.00 in0.0 mm 0.00 in0.0 mm 0.00 in0.0 mm
02:01 AM 53.4°F11.9°C 14.4°F-9.8°C 21% 2.9 mph E4.7 kmh E 4.9 mph7.9 kmh 30.10 in1019.3 mb 0.00 in0.0 mm 0.00 in0.0 mm 0.00 in0.0 mm
02:11 AM 53.8°F12.1°C 14.7°F-9.6°C 21% 2.0 mph ESE3.2 kmh ESE 7.0 mph11.3 kmh 30.10 in1019.3 mb 0.00 in0.0 mm 0.00 in0.0 mm 0.00 in0.0 mm
02:21 AM 53.2°F11.8°C 14.4°F-9.8°C 21% 2.9 mph SE4.7 kmh SE 4.9 mph7.9 kmh 30.10 in1019.3 mb 0.00 in0.0 mm 0.00 in0.0 mm 0.00 in0.0 mm
02:31 AM 53.1°F11.7°C 15.3°F-9.3°C 22% 2.0 mph SE3.2 kmh SE 4.9 mph7.9 kmh 30.09 in1019.0 mb 0.00 in0.0 mm 0.00 in0.0 mm 0.00 in0.0 mm
02:41 AM 53.6°F12.0°C 14.5°F-9.7°C 21% 2.9 mph SE4.7 kmh SE 6.0 mph9.7 kmh 30.09 in1019.0 mb 0.00 in0.0 mm 0.00 in0.0 mm 0.00 in0.0 mm
02:51 AM 53.8°F12.1°C 13.6°F-10.2°C 20% 2.9 mph ENE4.7 kmh ENE 8.9 mph14.3 kmh 30.09 in1019.0 mb 0.00 in0.0 mm 0.00 in0.0 mm 0.00 in0.0 mm
03:01 AM 54.9°F12.7°C 13.3°F-10.4°C 19% 4.9 mph E7.9 kmh E 14.1 mph22.7 kmh 30.09 in1019.0 mb 0.00 in0.0 mm 0.00 in0.0 mm 0.00 in0.0 mm
03:11 AM 56.1°F13.4°C 13.1°F-10.5°C 18% 6.0 mph E9.7 kmh E 13.0 mph20.9 kmh 30.09 in1019.0 mb 0.00 in0.0 mm 0.00 in0.0 mm 0.00 in0.0 mm
03:21 AM 55.6°F13.1°C 12.7°F-10.7°C 18% 6.0 mph ESE9.7 kmh ESE 13.0 mph20.9 kmh 30.09 in1019.0 mb 0.00 in0.0 mm 0.00 in0.0 mm 0.00 in0.0 mm
03:31 AM 55.2°F12.9°C 12.4°F-10.9°C 18% 4.0 mph ENE6.4 kmh ENE 6.9 mph11.1 kmh 30.09 in1019.0 mb 0.00 in0.0 mm 0.00 in0.0 mm 0.00 in0.0 mm
03:41 AM 54.9°F12.7°C 13.3°F-10.4°C 19% 4.0 mph E6.4 kmh E 6.9 mph11.1 kmh 30.09 in1019.0 mb 0.00 in0.0 mm 0.00 in0.0 mm 0.00 in0.0 mm
03:51 AM 54.9°F12.7°C 13.3°F-10.4°C 19% 2.9 mph NE4.7 kmh NE 6.9 mph11.1 kmh 30.08 in1018.6 mb 0.00 in0.0 mm 0.00 in0.0 mm 0.00 in0.0 mm
04:01 AM 54.9°F12.7°C 12.2°F-11.0°C 18% 2.0 mph E3.2 kmh E 7.0 mph11.3 kmh 30.08 in1018.6 mb 0.00 in0.0 mm 0.00 in0.0 mm 0.00 in0.0 mm
04:11 AM 55.2°F12.9°C 12.4°F-10.9°C 18% 2.9 mph ENE4.7 kmh ENE 9.0 mph14.5 kmh 30.08 in1018.6 mb 0.00 in0.0 mm 0.00 in0.0 mm 0.00 in0.0 mm
04:22 AM 54.9°F12.7°C 13.3°F-10.4°C 19% 4.0 mph ENE6.4 kmh ENE 8.1 mph13.0 kmh 30.08 in1018.6 mb 0.00 in0.0 mm 0.00 in0.0 mm 0.00 in0.0 mm
04:32 AM 55.8°F13.2°C 11.7°F-11.3°C 17% 4.0 mph ENE6.4 kmh ENE 8.9 mph14.3 kmh 30.08 in1018.6 mb 0.00 in0.0 mm 0.00 in0.0 mm 0.00 in0.0 mm
04:42 AM 56.1°F13.4°C 11.8°F-11.2°C 17% 4.9 mph NE7.9 kmh NE 10.1 mph16.3 kmh 30.08 in1018.6 mb 0.00 in0.0 mm 0.00 in0.0 mm 0.00 in0.0 mm
04:52 AM 56.1°F13.4°C 13.1°F-10.5°C 18% 4.0 mph NE6.4 kmh NE 10.1 mph16.3 kmh 30.08 in1018.6 mb 0.00 in0.0 mm 0.00 in0.0 mm 0.00 in0.0 mm
05:02 AM 55.8°F13.2°C 12.9°F-10.6°C 18% 4.0 mph ENE6.4 kmh ENE 9.0 mph14.5 kmh 30.08 in1018.6 mb 0.00 in0.0 mm 0.00 in0.0 mm 0.00 in0.0 mm
05:12 AM 55.6°F13.1°C 12.7°F-10.7°C 18% 4.9 mph ENE7.9 kmh ENE 8.9 mph14.3 kmh 30.09 in1019.0 mb 0.00 in0.0 mm 0.00 in0.0 mm 0.00 in0.0 mm
05:22 AM 55.0°F12.8°C 12.2°F-11.0°C 18% 4.9 mph NE7.9 kmh NE 10.1 mph16.3 kmh 30.09 in1019.0 mb 0.00 in0.0 mm 0.00 in0.0 mm 0.00 in0.0 mm
05:32 AM 55.2°F12.9°C 12.4°F-10.9°C 18% 4.9 mph E7.9 kmh E 12.1 mph19.5 kmh 30.10 in1019.3 mb 0.00 in0.0 mm 0.00 in0.0 mm 0.00 in0.0 mm
05:42 AM 55.2°F12.9°C 12.4°F-10.9°C 18% 4.9 mph ENE7.9 kmh ENE 11.0 mph17.7 kmh 30.10 in1019.3 mb 0.00 in0.0 mm 0.00 in0.0 mm 0.00 in0.0 mm
05:52 AM 55.8°F13.2°C 12.9°F-10.6°C 18% 6.9 mph E11.1 kmh E 11.0 mph17.7 kmh 30.10 in1019.3 mb 0.00 in0.0 mm 0.00 in0.0 mm 0.00 in0.0 mm
06:02 AM 56.1°F13.4°C 13.1°F-10.5°C 18% 6.9 mph ENE11.1 kmh ENE 12.1 mph19.5 kmh 30.11 in1019.6 mb 0.00 in0.0 mm 0.00 in0.0 mm 0.00 in0.0 mm
06:12 AM 57.0°F13.9°C 11.3°F-11.5°C 16% 8.1 mph ENE13.0 kmh ENE 13.0 mph20.9 kmh 30.11 in1019.6 mb 0.00 in0.0 mm 0.00 in0.0 mm 0.00 in0.0 mm
06:22 AM 56.5°F13.6°C 12.2°F-11.0°C 17% 6.0 mph ENE9.7 kmh ENE 12.1 mph19.5 kmh 30.11 in1019.6 mb 0.00 in0.0 mm 0.00 in0.0 mm 0.00 in0.0 mm
06:32 AM 55.8°F13.2°C 12.9°F-10.6°C 18% 6.0 mph ENE9.7 kmh ENE 10.1 mph16.3 kmh 30.11 in1019.6 mb 0.00 in0.0 mm 0.00 in0.0 mm 0.00 in0.0 mm
06:42 AM 55.6°F13.1°C 12.7°F-10.7°C 18% 6.0 mph ENE9.7 kmh ENE 12.1 mph19.5 kmh 30.11 in1019.6 mb 0.00 in0.0 mm 0.00 in0.0 mm 0.00 in0.0 mm
06:52 AM 55.2°F12.9°C 12.4°F-10.9°C 18% 6.0 mph ENE9.7 kmh ENE 11.0 mph17.7 kmh 30.12 in1020.0 mb 0.00 in0.0 mm 0.00 in0.0 mm 0.00 in0.0 mm
07:02 AM 55.8°F13.2°C 12.9°F-10.6°C 18% 6.0 mph NE9.7 kmh NE 11.0 mph17.7 kmh 30.12 in1020.0 mb 0.00 in0.0 mm 0.00 in0.0 mm 0.00 in0.0 mm
07:12 AM 56.1°F13.4°C 13.1°F-10.5°C 18% 6.0 mph NE9.7 kmh NE 12.1 mph19.5 kmh 30.12 in1020.0 mb 0.00 in0.0 mm 0.00 in0.0 mm 0.00 in0.0 mm
07:22 AM 56.7°F13.7°C 13.6°F-10.2°C 18% 6.0 mph NE9.7 kmh NE 11.0 mph17.7 kmh 30.12 in1020.0 mb 0.00 in0.0 mm 0.00 in0.0 mm 0.00 in0.0 mm
07:32 AM 57.4°F14.1°C 14.2°F-9.9°C 18% 4.0 mph E6.4 kmh E 10.1 mph16.3 kmh 30.12 in1020.0 mb 0.00 in0.0 mm 0.00 in0.0 mm 0.00 in0.0 mm
07:42 AM 58.5°F14.7°C 15.1°F-9.4°C 18% 6.0 mph E9.7 kmh E 13.0 mph20.9 kmh 30.13 in1020.3 mb 0.00 in0.0 mm 0.00 in0.0 mm 0.00 in0.0 mm
07:52 AM 59.2°F15.1°C 15.6°F-9.1°C 18% 6.0 mph NE9.7 kmh NE 13.0 mph20.9 kmh 30.13 in1020.3 mb 0.00 in0.0 mm 0.00 in0.0 mm 0.00 in0.0 mm
08:02 AM 59.5°F15.3°C 16.0°F-8.9°C 18% 6.0 mph NE9.7 kmh NE 12.1 mph19.5 kmh 30.13 in1020.3 mb 0.00 in0.0 mm 0.00 in0.0 mm 0.00 in0.0 mm
08:12 AM 60.3°F15.7°C 17.8°F-7.9°C 19% 4.9 mph SE7.9 kmh SE 8.9 mph14.3 kmh 30.13 in1020.3 mb 0.00 in0.0 mm 0.00 in0.0 mm 0.00 in0.0 mm
08:22 AM 61.0°F16.1°C 15.8°F-9.0°C 17% 6.0 mph NE9.7 kmh NE 16.1 mph25.9 kmh 30.13 in1020.3 mb 0.00 in0.0 mm 0.00 in0.0 mm 0.00 in0.0 mm
08:32 AM 61.9°F16.6°C 16.5°F-8.6°C 17% 6.0 mph NE9.7 kmh NE 13.0 mph20.9 kmh 30.13 in1020.3 mb 0.00 in0.0 mm 0.00 in0.0 mm 0.00 in0.0 mm
08:52 AM 64.2°F17.9°C 18.5°F-7.5°C 17% 8.9 mph NE14.3 kmh NE 14.1 mph22.7 kmh 30.13 in1020.3 mb 0.00 in0.0 mm 0.00 in0.0 mm 0.00 in0.0 mm
09:02 AM 64.9°F18.3°C 16.2°F-8.8°C 15% 8.9 mph NE14.3 kmh NE 17.0 mph27.4 kmh 30.14 in1020.7 mb 0.00 in0.0 mm 0.00 in0.0 mm 0.00 in0.0 mm
09:12 AM 65.7°F18.7°C 16.7°F-8.5°C 15% 8.9 mph NE14.3 kmh NE 17.0 mph27.4 kmh 30.14 in1020.7 mb 0.00 in0.0 mm 0.00 in0.0 mm 0.00 in0.0 mm
09:22 AM 66.4°F19.1°C 17.2°F-8.2°C 15% 8.9 mph NE14.3 kmh NE 17.0 mph27.4 kmh 30.14 in1020.7 mb 0.00 in0.0 mm 0.00 in0.0 mm 0.00 in0.0 mm
09:32 AM 67.3°F19.6°C 18.0°F-7.8°C 15% 6.0 mph NE9.7 kmh NE 13.0 mph20.9 kmh 30.14 in1020.7 mb 0.00 in0.0 mm 0.00 in0.0 mm 0.00 in0.0 mm
09:42 AM 67.6°F19.8°C 18.3°F-7.6°C 15% 8.1 mph NE13.0 kmh NE 15.0 mph24.1 kmh 30.14 in1020.7 mb 0.00 in0.0 mm 0.00 in0.0 mm 0.00 in0.0 mm
09:52 AM 68.4°F20.2°C 15.6°F-9.1°C 13% 6.0 mph NE9.7 kmh NE 13.0 mph20.9 kmh 30.14 in1020.7 mb 0.00 in0.0 mm 0.00 in0.0 mm 0.00 in0.0 mm
10:02 AM 68.9°F20.5°C 16.0°F-8.9°C 13% 6.9 mph E11.1 kmh E 14.1 mph22.7 kmh 30.14 in1020.7 mb 0.00 in0.0 mm 0.00 in0.0 mm 0.00 in0.0 mm
10:12 AM 69.4°F20.8°C 18.1°F-7.7°C 14% 6.9 mph NE11.1 kmh NE 12.1 mph19.5 kmh 30.13 in1020.3 mb 0.00 in0.0 mm 0.00 in0.0 mm 0.00 in0.0 mm
10:22 AM 70.3°F21.3°C 17.2°F-8.2°C 13% 6.0 mph NE9.7 kmh NE 11.0 mph17.7 kmh 30.13 in1020.3 mb 0.00 in0.0 mm 0.00 in0.0 mm 0.00 in0.0 mm
10:32 AM 71.1°F21.7°C 19.4°F-7.0°C 14% 4.9 mph NE7.9 kmh NE 15.0 mph24.1 kmh 30.12 in1020.0 mb 0.00 in0.0 mm 0.00 in0.0 mm 0.00 in0.0 mm
10:42 AM 71.8°F22.1°C 21.6°F-5.8°C 15% 4.9 mph NE7.9 kmh NE 14.1 mph22.7 kmh 30.12 in1020.0 mb 0.00 in0.0 mm 0.00 in0.0 mm 0.00 in0.0 mm
10:52 AM 72.1°F22.3°C 20.3°F-6.5°C 14% 6.9 mph NE11.1 kmh NE 15.0 mph24.1 kmh 30.11 in1019.6 mb 0.00 in0.0 mm 0.00 in0.0 mm 0.00 in0.0 mm
11:02 AM 72.3°F22.4°C 20.5°F-6.4°C 14% 6.9 mph NNE11.1 kmh NNE 15.0 mph24.1 kmh 30.10 in1019.3 mb 0.00 in0.0 mm 0.00 in0.0 mm 0.00 in0.0 mm
11:12 AM 73.2°F22.9°C 21.2°F-6.0°C 14% 6.0 mph N9.7 kmh N 11.0 mph17.7 kmh 30.10 in1019.3 mb 0.00 in0.0 mm 0.00 in0.0 mm 0.00 in0.0 mm
11:22 AM 73.6°F23.1°C 19.8°F-6.8°C 13% 2.9 mph NE4.7 kmh NE 8.1 mph13.0 kmh 30.10 in1019.3 mb 0.00 in0.0 mm 0.00 in0.0 mm 0.00 in0.0 mm
11:32 AM 74.1°F23.4°C 20.1°F-6.6°C 13% 4.0 mph N6.4 kmh N 11.0 mph17.7 kmh 30.09 in1019.0 mb 0.00 in0.0 mm 0.00 in0.0 mm 0.00 in0.0 mm
11:42 AM 74.5°F23.6°C 20.5°F-6.4°C 13% 4.9 mph NW7.9 kmh NW 10.1 mph16.3 kmh 30.09 in1019.0 mb 0.00 in0.0 mm 0.00 in0.0 mm 0.00 in0.0 mm
11:52 AM 75.0°F23.9°C 20.8°F-6.2°C 13% 2.9 mph N4.7 kmh N 9.0 mph14.5 kmh 30.08 in1018.6 mb 0.00 in0.0 mm 0.00 in0.0 mm 0.00 in0.0 mm
12:02 PM 76.1°F24.5°C 21.7°F-5.7°C 13% 4.0 mph N6.4 kmh N 8.9 mph14.3 kmh 30.08 in1018.6 mb 0.00 in0.0 mm 0.00 in0.0 mm 0.00 in0.0 mm
12:12 PM 76.3°F24.6°C 19.9°F-6.7°C 12% 2.9 mph NNW4.7 kmh NNW 9.0 mph14.5 kmh 30.07 in1018.3 mb 0.00 in0.0 mm 0.00 in0.0 mm 0.00 in0.0 mm
12:22 PM 74.8°F23.8°C 39.6°F4.2°C 28% 4.9 mph NW7.9 kmh NW 10.1 mph16.3 kmh 30.07 in1018.3 mb 0.00 in0.0 mm 0.00 in0.0 mm 0.00 in0.0 mm
12:32 PM 74.1°F23.4°C 36.0°F2.2°C 25% 6.0 mph W9.7 kmh W 10.1 mph16.3 kmh 30.06 in1017.9 mb 0.00 in0.0 mm 0.00 in0.0 mm 0.00 in0.0 mm
12:42 PM 74.5°F23.6°C 39.2°F4.0°C 28% 4.9 mph W7.9 kmh W 11.0 mph17.7 kmh 30.06 in1017.9 mb 0.00 in0.0 mm 0.00 in0.0 mm 0.00 in0.0 mm
12:52 PM 73.2°F22.9°C 37.2°F2.9°C 27% 6.9 mph W11.1 kmh W 13.0 mph20.9 kmh 30.05 in1017.6 mb 0.00 in0.0 mm 0.00 in0.0 mm 0.00 in0.0 mm
01:02 PM 72.7°F22.6°C 36.9°F2.7°C 27% 6.9 mph WSW11.1 kmh WSW 14.1 mph22.7 kmh 30.05 in1017.6 mb 0.00 in0.0 mm 0.00 in0.0 mm 0.00 in0.0 mm
01:12 PM 72.9°F22.7°C 39.6°F4.2°C 30% 6.9 mph SW11.1 kmh SW 13.0 mph20.9 kmh 30.05 in1017.6 mb 0.00 in0.0 mm 0.00 in0.0 mm 0.00 in0.0 mm
01:22 PM 72.3°F22.4°C 34.5°F1.4°C 25% 4.9 mph W7.9 kmh W 12.1 mph19.5 kmh 30.05 in1017.6 mb 0.00 in0.0 mm 0.00 in0.0 mm 0.00 in0.0 mm
01:32 PM 72.3°F22.4°C 28.9°F-1.7°C 20% 6.0 mph W9.7 kmh W 13.0 mph20.9 kmh 30.05 in1017.6 mb 0.00 in0.0 mm 0.00 in0.0 mm 0.00 in0.0 mm
01:42 PM 72.7°F22.6°C 32.7°F0.4°C 23% 4.9 mph WSW7.9 kmh WSW 14.1 mph22.7 kmh 30.04 in1017.3 mb 0.00 in0.0 mm 0.00 in0.0 mm 0.00 in0.0 mm
01:52 PM 72.3°F22.4°C 35.6°F2.0°C 26% 4.9 mph W7.9 kmh W 13.0 mph20.9 kmh 30.04 in1017.3 mb 0.00 in0.0 mm 0.00 in0.0 mm 0.00 in0.0 mm
02:02 PM 71.4°F21.9°C 36.7°F2.6°C 28% 6.0 mph WSW9.7 kmh WSW 12.1 mph19.5 kmh 30.04 in1017.3 mb 0.00 in0.0 mm 0.00 in0.0 mm 0.00 in0.0 mm
02:12 PM 71.8°F22.1°C 36.9°F2.7°C 28% 4.9 mph SSW7.9 kmh SSW 10.1 mph16.3 kmh 30.04 in1017.3 mb 0.00 in0.0 mm 0.00 in0.0 mm 0.00 in0.0 mm
02:22 PM 71.8°F22.1°C 34.0°F1.1°C 25% 4.0 mph SSW6.4 kmh SSW 8.9 mph14.3 kmh 30.04 in1017.3 mb 0.00 in0.0 mm 0.00 in0.0 mm 0.00 in0.0 mm
02:32 PM 72.0°F22.2°C 32.2°F0.1°C 23% 4.0 mph W6.4 kmh W 10.1 mph16.3 kmh 30.04 in1017.3 mb 0.00 in0.0 mm 0.00 in0.0 mm 0.00 in0.0 mm
02:42 PM 72.5°F22.5°C 33.6°F0.9°C 24% 2.9 mph S4.7 kmh S 6.9 mph11.1 kmh 30.04 in1017.3 mb 0.00 in0.0 mm 0.00 in0.0 mm 0.00 in0.0 mm
02:52 PM 72.7°F22.6°C 34.9°F1.6°C 25% 2.0 mph SSE3.2 kmh SSE 6.9 mph11.1 kmh 30.04 in1017.3 mb 0.00 in0.0 mm 0.00 in0.0 mm 0.00 in0.0 mm
03:02 PM 73.4°F23.0°C 36.5°F2.5°C 26% 2.0 mph WSW3.2 kmh WSW 4.9 mph7.9 kmh 30.04 in1017.3 mb 0.00 in0.0 mm 0.00 in0.0 mm 0.00 in0.0 mm
03:12 PM 72.1°F22.3°C 38.1°F3.4°C 29% 2.9 mph WSW4.7 kmh WSW 6.9 mph11.1 kmh 30.04 in1017.3 mb 0.00 in0.0 mm 0.00 in0.0 mm 0.00 in0.0 mm
03:22 PM 72.1°F22.3°C 39.0°F3.9°C 30% 2.0 mph WSW3.2 kmh WSW 6.0 mph9.7 kmh 30.04 in1017.3 mb 0.00 in0.0 mm 0.00 in0.0 mm 0.00 in0.0 mm
03:32 PM 71.8°F22.1°C 40.3°F4.6°C 32% 0.9 mph W1.4 kmh W 4.9 mph7.9 kmh 30.04 in1017.3 mb 0.00 in0.0 mm 0.00 in0.0 mm 0.00 in0.0 mm
03:42 PM 71.8°F22.1°C 39.6°F4.2°C 31% 2.0 mph S3.2 kmh S 4.0 mph6.4 kmh 30.04 in1017.3 mb 0.00 in0.0 mm 0.00 in0.0 mm 0.00 in0.0 mm
03:52 PM 71.6°F22.0°C 39.4°F4.1°C 31% 2.0 mph SW3.2 kmh SW 4.9 mph7.9 kmh 30.04 in1017.3 mb 0.00 in0.0 mm 0.00 in0.0 mm 0.00 in0.0 mm
04:02 PM 72.0°F22.2°C 38.8°F3.8°C 30% Calm Calm 2.0 mph3.2 kmh 30.05 in1017.6 mb 0.00 in0.0 mm 0.00 in0.0 mm 0.00 in0.0 mm
04:12 PM 72.0°F22.2°C 37.9°F3.3°C 29% 0.9 mph SW1.4 kmh SW 4.0 mph6.4 kmh 30.05 in1017.6 mb 0.00 in0.0 mm 0.00 in0.0 mm 0.00 in0.0 mm
04:22 PM 70.5°F21.4°C 37.6°F3.1°C 30% Calm Calm 2.9 mph4.7 kmh 30.05 in1017.6 mb 0.00 in0.0 mm 0.00 in0.0 mm 0.00 in0.0 mm
04:32 PM 68.2°F20.1°C 37.9°F3.3°C 33% 0.9 mph SSE1.4 kmh SSE 4.0 mph6.4 kmh 30.05 in1017.6 mb 0.00 in0.0 mm 0.00 in0.0 mm 0.00 in0.0 mm
04:42 PM 66.4°F19.1°C 37.9°F3.3°C 35% 0.9 mph SE1.4 kmh SE 2.9 mph4.7 kmh 30.05 in1017.6 mb 0.00 in0.0 mm 0.00 in0.0 mm 0.00 in0.0 mm
04:52 PM 65.7°F18.7°C 37.9°F3.3°C 36% 0.9 mph SSE1.4 kmh SSE 2.9 mph4.7 kmh 30.05 in1017.6 mb 0.00 in0.0 mm 0.00 in0.0 mm 0.00 in0.0 mm
05:02 PM 64.2°F17.9°C 36.7°F2.6°C 36% 2.0 mph SE3.2 kmh SE 4.0 mph6.4 kmh 30.05 in1017.6 mb 0.00 in0.0 mm 0.00 in0.0 mm 0.00 in0.0 mm
05:12 PM 62.4°F16.9°C 37.2°F2.9°C 39% 2.0 mph ESE3.2 kmh ESE 4.0 mph6.4 kmh 30.06 in1017.9 mb 0.00 in0.0 mm 0.00 in0.0 mm 0.00 in0.0 mm
05:22 PM 61.3°F16.3°C 36.9°F2.7°C 40% 0.9 mph ESE1.4 kmh ESE 2.9 mph4.7 kmh 30.06 in1017.9 mb 0.00 in0.0 mm 0.00 in0.0 mm 0.00 in0.0 mm
05:32 PM 60.6°F15.9°C 36.1°F2.3°C 40% 2.0 mph SE3.2 kmh SE 2.9 mph4.7 kmh 30.07 in1018.3 mb 0.00 in0.0 mm 0.00 in0.0 mm 0.00 in0.0 mm
05:42 PM 60.6°F15.9°C 35.6°F2.0°C 39% 2.0 mph SE3.2 kmh SE 4.0 mph6.4 kmh 30.07 in1018.3 mb 0.00 in0.0 mm 0.00 in0.0 mm 0.00 in0.0 mm
05:52 PM 59.5°F15.3°C 34.5°F1.4°C 39% 0.9 mph SE1.4 kmh SE 2.9 mph4.7 kmh 30.08 in1018.6 mb 0.00 in0.0 mm 0.00 in0.0 mm 0.00 in0.0 mm
06:02 PM 58.8°F14.9°C 31.3°F-0.4°C 35% 0.9 mph SE1.4 kmh SE 2.9 mph4.7 kmh 30.09 in1019.0 mb 0.00 in0.0 mm 0.00 in0.0 mm 0.00 in0.0 mm
06:12 PM 62.2°F16.8°C 26.1°F-3.3°C 25% 2.9 mph E4.7 kmh E 8.9 mph14.3 kmh 30.09 in1019.0 mb 0.00 in0.0 mm 0.00 in0.0 mm 0.00 in0.0 mm
06:22 PM 65.1°F18.4°C 20.5°F-6.4°C 18% 4.0 mph ENE6.4 kmh ENE 11.0 mph17.7 kmh 30.09 in1019.0 mb 0.00 in0.0 mm 0.00 in0.0 mm 0.00 in0.0 mm
06:32 PM 65.7°F18.7°C 19.6°F-6.9°C 17% 4.0 mph E6.4 kmh E 8.1 mph13.0 kmh 30.09 in1019.0 mb 0.00 in0.0 mm 0.00 in0.0 mm 0.00 in0.0 mm
06:42 PM 65.1°F18.4°C 19.2°F-7.1°C 17% 2.9 mph E4.7 kmh E 6.9 mph11.1 kmh 30.09 in1019.0 mb 0.00 in0.0 mm 0.00 in0.0 mm 0.00 in0.0 mm
06:52 PM 64.6°F18.1°C 20.1°F-6.6°C 18% 2.9 mph E4.7 kmh E 5.0 mph8.0 kmh 30.10 in1019.3 mb 0.00 in0.0 mm 0.00 in0.0 mm 0.00 in0.0 mm
07:02 PM 64.8°F18.2°C 20.3°F-6.5°C 18% 2.9 mph ENE4.7 kmh ENE 4.9 mph7.9 kmh 30.11 in1019.6 mb 0.00 in0.0 mm 0.00 in0.0 mm 0.00 in0.0 mm
07:12 PM 64.8°F18.2°C 18.9°F-7.3°C 17% 2.0 mph E3.2 kmh E 4.9 mph7.9 kmh 30.11 in1019.6 mb 0.00 in0.0 mm 0.00 in0.0 mm 0.00 in0.0 mm
07:22 PM 64.0°F17.8°C 19.6°F-6.9°C 18% 0.9 mph ENE1.4 kmh ENE 4.9 mph7.9 kmh 30.11 in1019.6 mb 0.00 in0.0 mm 0.00 in0.0 mm 0.00 in0.0 mm
07:32 PM 62.4°F16.9°C 20.8°F-6.2°C 20% Calm Calm 2.9 mph4.7 kmh 30.10 in1019.3 mb 0.00 in0.0 mm 0.00 in0.0 mm 0.00 in0.0 mm
07:42 PM 60.3°F15.7°C 21.2°F-6.0°C 22% 2.9 mph SE4.7 kmh SE 4.0 mph6.4 kmh 30.10 in1019.3 mb 0.00 in0.0 mm 0.00 in0.0 mm 0.00 in0.0 mm
07:52 PM 59.2°F15.1°C 23.4°F-4.8°C 25% 2.0 mph SE3.2 kmh SE 4.0 mph6.4 kmh 30.10 in1019.3 mb 0.00 in0.0 mm 0.00 in0.0 mm 0.00 in0.0 mm
08:02 PM 57.6°F14.2°C 21.9°F-5.6°C 25% 0.9 mph SE1.4 kmh SE 2.9 mph4.7 kmh 30.10 in1019.3 mb 0.00 in0.0 mm 0.00 in0.0 mm 0.00 in0.0 mm
08:12 PM 60.6°F15.9°C 19.4°F-7.0°C 20% 2.0 mph E3.2 kmh E 4.0 mph6.4 kmh 30.10 in1019.3 mb 0.00 in0.0 mm 0.00 in0.0 mm 0.00 in0.0 mm
08:22 PM 62.2°F16.8°C 19.4°F-7.0°C 19% 2.0 mph ENE3.2 kmh ENE 4.0 mph6.4 kmh 30.10 in1019.3 mb 0.00 in0.0 mm 0.00 in0.0 mm 0.00 in0.0 mm
08:32 PM 61.7°F16.5°C 19.0°F-7.2°C 19% Calm Calm 2.0 mph3.2 kmh 30.11 in1019.6 mb 0.00 in0.0 mm 0.00 in0.0 mm 0.00 in0.0 mm
08:42 PM 58.6°F14.8°C 21.0°F-6.1°C 23% 2.0 mph ESE3.2 kmh ESE 2.9 mph4.7 kmh 30.11 in1019.6 mb 0.00 in0.0 mm 0.00 in0.0 mm 0.00 in0.0 mm
08:52 PM 58.3°F14.6°C 18.5°F-7.5°C 21% 0.9 mph ENE1.4 kmh ENE 2.9 mph4.7 kmh 30.11 in1019.6 mb 0.00 in0.0 mm 0.00 in0.0 mm 0.00 in0.0 mm
09:02 PM 57.7°F14.3°C 20.1°F-6.6°C 23% 2.0 mph E3.2 kmh E 4.0 mph6.4 kmh 30.11 in1019.6 mb 0.00 in0.0 mm 0.00 in0.0 mm 0.00 in0.0 mm
09:12 PM 59.5°F15.3°C 19.6°F-6.9°C 21% 2.0 mph NNE3.2 kmh NNE 4.9 mph7.9 kmh 30.11 in1019.6 mb 0.00 in0.0 mm 0.00 in0.0 mm 0.00 in0.0 mm
09:22 PM 57.4°F14.1°C 19.9°F-6.7°C 23% 2.0 mph ENE3.2 kmh ENE 6.0 mph9.7 kmh 30.10 in1019.3 mb 0.00 in0.0 mm 0.00 in0.0 mm 0.00 in0.0 mm
09:32 PM 57.2°F14.0°C 19.8°F-6.8°C 23% 2.9 mph E4.7 kmh E 6.9 mph11.1 kmh 30.11 in1019.6 mb 0.00 in0.0 mm 0.00 in0.0 mm 0.00 in0.0 mm
09:42 PM 58.6°F14.8°C 19.9°F-6.7°C 22% 4.9 mph E7.9 kmh E 13.0 mph20.9 kmh 30.11 in1019.6 mb 0.00 in0.0 mm 0.00 in0.0 mm 0.00 in0.0 mm
09:52 PM 61.0°F16.1°C 19.6°F-6.9°C 20% 4.9 mph E7.9 kmh E 15.0 mph24.1 kmh 30.11 in1019.6 mb 0.00 in0.0 mm 0.00 in0.0 mm 0.00 in0.0 mm
10:02 PM 64.6°F18.1°C 18.9°F-7.3°C 17% 6.0 mph NE9.7 kmh NE 13.0 mph20.9 kmh 30.11 in1019.6 mb 0.00 in0.0 mm 0.00 in0.0 mm 0.00 in0.0 mm
10:12 PM 64.2°F17.9°C 18.5°F-7.5°C 17% 4.9 mph NE7.9 kmh NE 10.1 mph16.3 kmh 30.11 in1019.6 mb 0.00 in0.0 mm 0.00 in0.0 mm 0.00 in0.0 mm
10:22 PM 62.2°F16.8°C 19.4°F-7.0°C 19% 2.9 mph ESE4.7 kmh ESE 6.9 mph11.1 kmh 30.12 in1020.0 mb 0.00 in0.0 mm 0.00 in0.0 mm 0.00 in0.0 mm
10:32 PM 61.3°F16.3°C 19.9°F-6.7°C 20% 2.0 mph E3.2 kmh E 4.0 mph6.4 kmh 30.12 in1020.0 mb 0.00 in0.0 mm 0.00 in0.0 mm 0.00 in0.0 mm
10:42 PM 60.4°F15.8°C 19.2°F-7.1°C 20% 0.9 mph E1.4 kmh E 4.0 mph6.4 kmh 30.12 in1020.0 mb 0.00 in0.0 mm 0.00 in0.0 mm 0.00 in0.0 mm
10:52 PM 59.7°F15.4°C 19.8°F-6.8°C 21% 0.9 mph ESE1.4 kmh ESE 2.9 mph4.7 kmh 30.12 in1020.0 mb 0.00 in0.0 mm 0.00 in0.0 mm 0.00 in0.0 mm
11:02 PM 57.0°F13.9°C 21.6°F-5.8°C 25% 2.0 mph SSE3.2 kmh SSE 4.0 mph6.4 kmh 30.13 in1020.3 mb 0.00 in0.0 mm 0.00 in0.0 mm 0.00 in0.0 mm
11:12 PM 55.9°F13.3°C 21.6°F-5.8°C 26% 0.9 mph SE1.4 kmh SE 4.0 mph6.4 kmh 30.14 in1020.7 mb 0.00 in0.0 mm 0.00 in0.0 mm 0.00 in0.0 mm
11:22 PM 55.4°F13.0°C 21.0°F-6.1°C 26% 2.0 mph SE3.2 kmh SE 2.9 mph4.7 kmh 30.14 in1020.7 mb 0.00 in0.0 mm 0.00 in0.0 mm 0.00 in0.0 mm
11:32 PM 54.5°F12.5°C 21.2°F-6.0°C 27% 0.9 mph SE1.4 kmh SE 2.0 mph3.2 kmh 30.14 in1020.7 mb 0.00 in0.0 mm 0.00 in0.0 mm 0.00 in0.0 mm
11:42 PM 53.8°F12.1°C 21.4°F-5.9°C 28% 2.0 mph ESE3.2 kmh ESE 5.0 mph8.0 kmh 30.15 in1021.0 mb 0.00 in0.0 mm 0.00 in0.0 mm 0.00 in0.0 mm
11:52 PM 52.9°F11.6°C 21.6°F-5.8°C 29% 2.0 mph SE3.2 kmh SE 4.0 mph6.4 kmh 30.15 in1021.0 mb 0.00 in0.0 mm 0.00 in0.0 mm 0.00 in0.0 mm